首页
METAR-TAF:

METAR-TAF

机场 :

Washington Municipal Airport

华盛顿, 艾奥瓦州, 美国

纬度: 41-17N, 经度: 091-40W, 海拔: 230米

当前天气观测

该预报发布于17分钟前的19:35 UTC
风速15节,风向东北
温度 6°C
湿度 65%
气压 1008 hPa
能見度: 16.1公里
阴天层高于3600英尺

METAR: KAWG 241935Z AUTO 05015KT 10SM OVC036 06/M00 A2977 RMK AO2

时间: 13:52 (19:52 UTC)


TAF: 丢失

超过4000个机场的气象观测和天气预报(METAR&TAF报告)。

可查询的气象台以黄色和红色小点在地图上表示。

将鼠标移到小点上方,可查看气象台名称。

然后点击查看天气观测和预报。

如需切换地图:点击带黑十字的绿色按钮放大地图;点击带横线的绿色按钮缩小地图;或者点击绿色箭头查看邻近地区的地图。


METAR-TAF: